createdAt,value
2023-03-29T00:02:30.386Z,5.90
2023-03-29T00:05:01.846Z,6.00
2023-03-29T00:07:30.107Z,5.90
2023-03-29T00:09:56.861Z,5.90
2023-03-29T00:12:23.560Z,5.80
2023-03-29T00:14:50.328Z,5.80
2023-03-29T00:17:17.011Z,5.80
2023-03-29T00:19:45.364Z,5.90
2023-03-29T00:22:12.154Z,5.80
2023-03-29T00:24:38.964Z,5.80
2023-03-29T00:27:05.732Z,5.80
2023-03-29T00:29:32.882Z,5.70
2023-03-29T00:31:59.809Z,5.70
2023-03-29T00:34:30.963Z,5.70
2023-03-29T00:36:58.757Z,5.80
2023-03-29T00:39:26.440Z,5.80
2023-03-29T00:41:53.348Z,5.80
2023-03-29T00:44:57.517Z,5.70
2023-03-29T00:47:27.394Z,5.70
2023-03-29T00:49:55.281Z,5.70
2023-03-29T00:52:22.635Z,5.70
2023-03-29T00:54:52.986Z,5.70
2023-03-29T00:57:20.850Z,5.70
2023-03-29T00:59:49.882Z,5.70
2023-03-29T01:02:22.047Z,5.60
2023-03-29T01:04:59.249Z,5.60
2023-03-29T01:07:40.325Z,5.60
2023-03-29T01:10:19.071Z,5.70
2023-03-29T01:13:02.453Z,5.60
2023-03-29T01:15:29.781Z,5.60
2023-03-29T01:17:58.363Z,5.60
2023-03-29T01:20:50.898Z,5.60
2023-03-29T01:23:34.203Z,5.70
2023-03-29T01:26:31.166Z,5.60
2023-03-29T01:29:03.317Z,5.60
2023-03-29T01:31:38.216Z,5.60
2023-03-29T01:34:14.836Z,5.60
2023-03-29T01:37:10.351Z,5.60
2023-03-29T01:39:37.135Z,5.60
2023-03-29T01:42:16.066Z,5.60
2023-03-29T01:44:49.840Z,5.60
2023-03-29T01:47:44.187Z,5.50
2023-03-29T01:50:28.972Z,5.60
2023-03-29T01:53:30.909Z,5.50
2023-03-29T01:56:04.493Z,5.50
2023-03-29T01:58:36.562Z,5.50
2023-03-29T02:01:09.838Z,5.50
2023-03-29T02:03:42.135Z,5.50
2023-03-29T02:06:11.891Z,5.50
2023-03-29T02:08:41.434Z,5.50
2023-03-29T02:11:08.867Z,5.60
2023-03-29T02:13:36.393Z,5.50
2023-03-29T02:16:13.547Z,5.50
2023-03-29T02:18:42.717Z,5.50
2023-03-29T02:21:11.547Z,5.50
2023-03-29T02:23:45.402Z,5.50
2023-03-29T02:26:14.352Z,5.50
2023-03-29T02:28:42.016Z,5.50
2023-03-29T02:31:23.721Z,5.50
2023-03-29T02:34:07.710Z,5.40
2023-03-29T02:36:43.976Z,5.40
2023-03-29T02:39:15.626Z,5.50
2023-03-29T02:41:45.806Z,5.50
2023-03-29T02:44:16.914Z,5.50
2023-03-29T02:46:44.348Z,5.50
2023-03-29T02:49:13.049Z,5.50
2023-03-29T02:51:39.739Z,5.50
2023-03-29T02:54:13.147Z,5.50
2023-03-29T02:56:44.849Z,5.50
2023-03-29T02:59:12.530Z,5.50
2023-03-29T03:01:44.711Z,5.50
2023-03-29T03:04:12.320Z,5.50
2023-03-29T03:06:39.403Z,5.50
2023-03-29T03:09:06.765Z,5.50
2023-03-29T03:11:34.291Z,5.60
2023-03-29T03:14:01.067Z,5.50
2023-03-29T03:16:28.026Z,5.60
2023-03-29T03:18:55.632Z,5.60
2023-03-29T03:21:23.036Z,5.60
2023-03-29T03:23:50.030Z,5.60
2023-03-29T03:26:18.204Z,5.70
2023-03-29T03:28:48.273Z,5.70
2023-03-29T03:31:15.076Z,5.60
2023-03-29T03:33:41.938Z,5.60
2023-03-29T03:36:10.760Z,5.60
2023-03-29T03:38:38.458Z,5.60
2023-03-29T03:41:07.000Z,5.70
2023-03-29T03:43:34.659Z,5.70
2023-03-29T03:46:01.904Z,5.60
2023-03-29T03:48:28.687Z,5.60
2023-03-29T03:50:58.089Z,5.60
2023-03-29T03:53:26.235Z,5.60
2023-03-29T03:55:55.936Z,5.60
2023-03-29T03:58:22.993Z,5.60
2023-03-29T04:00:50.927Z,5.70
2023-03-29T04:03:18.745Z,5.70
2023-03-29T04:05:46.729Z,5.70
2023-03-29T04:08:14.868Z,5.70
2023-03-29T04:10:42.033Z,5.70
2023-03-29T04:13:08.723Z,5.70
2023-03-29T04:15:38.701Z,5.80
2023-03-29T04:18:08.896Z,5.80
2023-03-29T04:20:35.928Z,5.80
2023-03-29T04:23:02.597Z,5.80
2023-03-29T04:25:29.703Z,5.70
2023-03-29T04:27:56.697Z,5.70
2023-03-29T04:30:23.647Z,5.80
2023-03-29T04:32:50.463Z,5.80
2023-03-29T04:35:17.870Z,5.70
2023-03-29T04:37:44.591Z,5.70
2023-03-29T04:40:14.961Z,5.70
2023-03-29T04:42:45.836Z,5.70
2023-03-29T04:45:17.926Z,5.80
2023-03-29T04:47:45.704Z,5.80
2023-03-29T04:50:13.759Z,5.80
2023-03-29T04:52:40.882Z,5.70
2023-03-29T04:55:08.527Z,5.80
2023-03-29T04:57:35.261Z,5.70
2023-03-29T05:00:02.179Z,5.70
2023-03-29T05:02:32.209Z,5.80
2023-03-29T05:04:59.378Z,5.80
2023-03-29T05:07:26.018Z,5.70
2023-03-29T05:09:53.375Z,5.70
2023-03-29T05:12:20.180Z,5.80
2023-03-29T05:14:47.194Z,5.70
2023-03-29T05:17:14.193Z,5.70
2023-03-29T05:19:41.345Z,5.70
2023-03-29T05:22:08.895Z,5.70
2023-03-29T05:24:36.136Z,5.70
2023-03-29T05:27:03.627Z,5.60
2023-03-29T05:29:32.717Z,5.60
2023-03-29T05:31:59.673Z,5.80
2023-03-29T05:34:26.501Z,5.60
2023-03-29T05:36:53.248Z,5.70
2023-03-29T05:39:19.877Z,5.70
2023-03-29T05:41:46.586Z,5.60
2023-03-29T05:44:13.287Z,5.50
2023-03-29T05:46:39.919Z,5.50
2023-03-29T05:49:06.814Z,5.60
2023-03-29T05:51:33.585Z,5.60
2023-03-29T05:54:00.662Z,5.50
2023-03-29T05:56:27.837Z,5.50
2023-03-29T05:58:56.966Z,5.50
2023-03-29T06:01:24.539Z,5.50
2023-03-29T06:03:51.957Z,5.50
2023-03-29T06:06:18.726Z,5.50
2023-03-29T06:08:46.460Z,5.50
2023-03-29T06:11:13.502Z,5.50
2023-03-29T06:13:42.020Z,5.50
2023-03-29T06:16:10.542Z,5.50
2023-03-29T06:18:40.117Z,5.50
2023-03-29T06:21:09.266Z,5.50
2023-03-29T06:23:36.854Z,5.60
2023-03-29T06:26:04.144Z,5.60
2023-03-29T06:28:30.852Z,5.60
2023-03-29T06:31:02.914Z,5.70
2023-03-29T06:33:32.242Z,5.60
2023-03-29T06:35:59.025Z,5.60
2023-03-29T06:38:28.369Z,5.70
2023-03-29T06:41:06.626Z,5.70
2023-03-29T06:43:34.666Z,5.60
2023-03-29T06:46:01.878Z,5.70
2023-03-29T06:48:29.330Z,5.70
2023-03-29T06:50:56.445Z,5.70
2023-03-29T06:53:23.295Z,5.70
2023-03-29T06:55:51.914Z,5.80
2023-03-29T06:58:18.642Z,5.80
2023-03-29T07:00:45.822Z,5.80
2023-03-29T07:03:19.801Z,5.90
2023-03-29T07:05:47.535Z,5.90
2023-03-29T07:08:16.316Z,5.90
2023-03-29T07:10:45.639Z,5.90
2023-03-29T07:13:13.219Z,6.00
2023-03-29T07:15:41.452Z,6.00
2023-03-29T07:18:14.940Z,6.00
2023-03-29T07:20:42.452Z,6.00
2023-03-29T07:23:09.985Z,6.10
2023-03-29T07:25:37.320Z,6.10
2023-03-29T07:28:04.653Z,6.20
2023-03-29T07:30:32.504Z,6.20
2023-03-29T07:33:00.397Z,6.70
2023-03-29T07:35:28.257Z,6.30
2023-03-29T07:37:55.678Z,6.30
2023-03-29T07:40:26.160Z,6.30
2023-03-29T07:42:57.047Z,6.30
2023-03-29T07:45:27.449Z,6.40
2023-03-29T07:47:57.812Z,6.40
2023-03-29T07:50:25.732Z,6.40
2023-03-29T07:52:52.702Z,6.40
2023-03-29T07:55:19.999Z,6.40
2023-03-29T07:57:46.692Z,6.40
2023-03-29T08:00:17.385Z,6.50
2023-03-29T08:02:45.556Z,6.60
2023-03-29T08:05:15.440Z,6.60
2023-03-29T08:07:46.876Z,6.60
2023-03-29T08:10:16.366Z,6.60
2023-03-29T08:12:43.870Z,6.60
2023-03-29T08:15:11.187Z,6.70
2023-03-29T08:17:38.140Z,6.80
2023-03-29T08:20:06.057Z,6.90
2023-03-29T08:22:33.982Z,6.80
2023-03-29T08:25:00.708Z,6.80
2023-03-29T08:27:27.551Z,6.90
2023-03-29T08:29:54.503Z,7.00
2023-03-29T08:32:21.422Z,7.00
2023-03-29T08:34:48.127Z,7.00
2023-03-29T08:37:15.019Z,7.00
2023-03-29T08:39:41.799Z,7.20
2023-03-29T08:42:23.777Z,7.20
2023-03-29T08:44:53.110Z,7.20
2023-03-29T08:47:37.137Z,7.30
2023-03-29T08:50:04.802Z,7.30
2023-03-29T08:52:38.006Z,7.30
2023-03-29T08:55:19.366Z,7.40
2023-03-29T08:57:48.665Z,7.50
2023-03-29T09:00:33.713Z,7.60
2023-03-29T09:03:02.398Z,7.60
2023-03-29T09:05:44.395Z,7.70
2023-03-29T09:08:17.410Z,7.80
2023-03-29T09:10:48.645Z,7.90
2023-03-29T09:13:21.205Z,8.10
2023-03-29T09:15:56.919Z,8.10
2023-03-29T09:18:38.387Z,8.20
2023-03-29T09:21:16.490Z,8.40
2023-03-29T09:24:15.687Z,8.50
2023-03-29T09:26:49.596Z,8.50
2023-03-29T09:29:46.243Z,8.60
2023-03-29T09:32:29.224Z,8.80
2023-03-29T09:35:14.173Z,9.10
2023-03-29T09:37:41.567Z,9.20
2023-03-29T09:40:17.158Z,9.20
2023-03-29T09:42:44.428Z,9.20
2023-03-29T09:45:11.578Z,9.10
2023-03-29T09:48:02.670Z,9.00
2023-03-29T09:50:40.810Z,9.10
2023-03-29T09:53:08.659Z,9.10
2023-03-29T09:55:37.116Z,9.20
2023-03-29T09:58:23.312Z,9.20
2023-03-29T10:00:49.973Z,9.30
2023-03-29T10:03:25.187Z,9.30
2023-03-29T10:05:54.478Z,9.30
2023-03-29T10:08:28.193Z,9.40
2023-03-29T10:10:57.754Z,9.40
2023-03-29T10:13:33.637Z,9.40
2023-03-29T10:16:07.862Z,9.50
2023-03-29T10:18:40.647Z,9.50
2023-03-29T10:21:12.035Z,9.50
2023-03-29T10:23:38.707Z,9.50
2023-03-29T10:26:18.083Z,9.60
2023-03-29T10:28:45.132Z,9.60
2023-03-29T10:31:18.395Z,9.70
2023-03-29T10:33:51.932Z,9.90
2023-03-29T10:36:19.301Z,9.90
2023-03-29T10:38:47.495Z,9.80
2023-03-29T10:41:15.815Z,9.80
2023-03-29T10:43:49.401Z,9.90
2023-03-29T10:46:27.968Z,10.00
2023-03-29T10:49:10.186Z,10.00
2023-03-29T10:51:37.429Z,10.00
2023-03-29T10:54:05.273Z,10.00
2023-03-29T10:56:45.859Z,10.10
2023-03-29T10:59:47.401Z,10.10
2023-03-29T11:02:14.248Z,10.20
2023-03-29T11:05:12.448Z,10.30
2023-03-29T11:07:56.109Z,10.30
2023-03-29T11:11:02.466Z,10.40
2023-03-29T11:13:49.445Z,10.50
2023-03-29T11:16:49.682Z,10.60
2023-03-29T11:19:31.275Z,10.80
2023-03-29T11:22:39.310Z,10.90
2023-03-29T11:25:15.536Z,11.00
2023-03-29T11:27:48.910Z,11.10
2023-03-29T11:30:57.178Z,11.20
2023-03-29T11:33:27.091Z,11.40
2023-03-29T11:36:17.633Z,11.50
2023-03-29T11:39:16.532Z,11.50
2023-03-29T11:41:48.594Z,11.70
2023-03-29T11:44:34.079Z,11.80
2023-03-29T11:47:09.792Z,11.80
2023-03-29T11:49:53.008Z,11.70
2023-03-29T11:52:34.781Z,11.80
2023-03-29T11:55:23.667Z,11.80
2023-03-29T11:58:09.598Z,11.90
2023-03-29T12:00:41.629Z,12.00
2023-03-29T12:03:46.343Z,12.30
2023-03-29T12:06:47.558Z,12.30
2023-03-29T12:09:34.604Z,12.50
2023-03-29T12:12:10.140Z,12.50
2023-03-29T12:14:46.804Z,12.40
2023-03-29T12:17:18.402Z,12.30
2023-03-29T12:20:12.306Z,12.40
2023-03-29T12:22:40.089Z,12.60
2023-03-29T12:25:11.101Z,12.50
2023-03-29T12:28:10.994Z,12.60
2023-03-29T12:31:05.316Z,12.70
2023-03-29T12:34:07.711Z,12.80
2023-03-29T12:37:08.123Z,12.90
2023-03-29T12:39:36.871Z,13.00
2023-03-29T12:42:14.752Z,13.20
2023-03-29T12:44:46.175Z,13.00
2023-03-29T12:47:21.362Z,12.90
2023-03-29T12:49:56.608Z,12.90
2023-03-29T12:52:34.876Z,12.80
2023-03-29T12:55:04.886Z,12.70
2023-03-29T12:57:59.998Z,12.60
2023-03-29T13:00:50.322Z,12.80
2023-03-29T13:03:53.303Z,12.70
2023-03-29T13:06:53.631Z,12.80
2023-03-29T13:09:28.051Z,12.90
2023-03-29T13:12:11.128Z,13.10
2023-03-29T13:14:42.761Z,13.10
2023-03-29T13:17:48.152Z,13.00
2023-03-29T13:20:23.705Z,13.10
2023-03-29T13:22:59.325Z,13.00
2023-03-29T13:25:38.436Z,13.00
2023-03-29T13:28:11.407Z,12.90
2023-03-29T13:31:05.965Z,12.90
2023-03-29T13:33:48.144Z,12.90
2023-03-29T13:36:42.172Z,12.90
2023-03-29T13:39:19.267Z,12.80
2023-03-29T13:41:49.284Z,13.00
2023-03-29T13:44:22.161Z,13.10
2023-03-29T13:47:00.916Z,12.80
2023-03-29T13:49:31.847Z,13.00
2023-03-29T13:52:28.520Z,13.00
2023-03-29T13:55:00.593Z,12.90
2023-03-29T13:57:42.861Z,12.90
2023-03-29T14:00:36.932Z,12.90
2023-03-29T14:03:12.131Z,12.80
2023-03-29T14:05:42.386Z,12.90
2023-03-29T14:08:16.629Z,12.80
2023-03-29T14:10:45.336Z,12.80
2023-03-29T14:13:14.814Z,12.90
2023-03-29T14:15:45.685Z,13.10
2023-03-29T14:18:16.810Z,13.20
2023-03-29T14:20:46.400Z,13.20
2023-03-29T14:23:20.280Z,13.20
2023-03-29T14:25:47.430Z,13.20
2023-03-29T14:28:21.033Z,13.10
2023-03-29T14:30:48.071Z,13.10
2023-03-29T14:33:14.783Z,13.00
2023-03-29T14:35:41.754Z,13.00
2023-03-29T14:38:12.778Z,13.00
2023-03-29T14:40:39.821Z,12.90
2023-03-29T14:43:08.216Z,12.80
2023-03-29T14:45:35.298Z,12.70
2023-03-29T14:48:02.519Z,12.70
2023-03-29T14:50:30.972Z,12.90
2023-03-29T14:53:00.481Z,13.00
2023-03-29T14:55:27.622Z,13.00
2023-03-29T14:57:55.392Z,13.00
2023-03-29T15:00:30.078Z,12.90
2023-03-29T15:02:59.842Z,12.80
2023-03-29T15:05:40.103Z,13.00
2023-03-29T15:08:13.167Z,12.90
2023-03-29T15:10:42.987Z,12.90
2023-03-29T15:13:21.835Z,12.70
2023-03-29T15:15:55.735Z,12.80
2023-03-29T15:18:30.111Z,12.90
2023-03-29T15:20:56.991Z,12.80
2023-03-29T15:23:25.963Z,12.90
2023-03-29T15:26:07.324Z,12.90
2023-03-29T15:28:35.734Z,12.80
2023-03-29T15:31:18.163Z,12.80
2023-03-29T15:33:45.569Z,12.70
2023-03-29T15:36:14.044Z,12.50
2023-03-29T15:38:44.687Z,12.50
2023-03-29T15:41:13.326Z,12.50
2023-03-29T15:43:41.161Z,12.50
2023-03-29T15:46:08.240Z,12.50
2023-03-29T15:48:35.143Z,12.50
2023-03-29T15:51:04.800Z,12.50
2023-03-29T15:53:33.022Z,12.50
2023-03-29T15:56:02.495Z,12.40
2023-03-29T15:58:32.400Z,12.50
2023-03-29T16:01:23.653Z,12.40
2023-03-29T16:03:51.034Z,12.30
2023-03-29T16:06:18.326Z,12.30
2023-03-29T16:08:45.152Z,12.30
2023-03-29T16:11:12.039Z,12.20
2023-03-29T16:13:38.775Z,12.20
2023-03-29T16:16:06.468Z,12.20
2023-03-29T16:18:33.677Z,12.10
2023-03-29T16:21:00.693Z,12.20
2023-03-29T16:23:27.389Z,12.10
2023-03-29T16:25:54.145Z,12.10
2023-03-29T16:28:21.669Z,12.10
2023-03-29T16:30:48.802Z,12.10
2023-03-29T16:33:15.946Z,12.10
2023-03-29T16:35:42.990Z,12.00
2023-03-29T16:38:09.781Z,11.90
2023-03-29T16:40:36.979Z,11.90
2023-03-29T16:43:04.484Z,11.80
2023-03-29T16:45:31.605Z,11.80
2023-03-29T16:47:58.615Z,11.80
2023-03-29T16:50:25.372Z,11.80
2023-03-29T16:52:52.567Z,11.70
2023-03-29T16:55:19.448Z,11.70
2023-03-29T16:57:47.478Z,11.70
2023-03-29T17:00:16.908Z,11.60
2023-03-29T17:02:44.091Z,11.60
2023-03-29T17:05:12.340Z,11.50
2023-03-29T17:07:39.493Z,11.50
2023-03-29T17:10:11.004Z,11.40
2023-03-29T17:12:37.804Z,11.40
2023-03-29T17:15:07.492Z,11.40
2023-03-29T17:17:34.741Z,11.40
2023-03-29T17:20:01.436Z,11.40
2023-03-29T17:22:28.073Z,11.40
2023-03-29T17:24:54.748Z,11.30
2023-03-29T17:27:21.493Z,11.40
2023-03-29T17:29:48.278Z,11.30
2023-03-29T17:32:14.902Z,11.30
2023-03-29T17:34:41.602Z,11.30
2023-03-29T17:37:09.570Z,11.30
2023-03-29T17:39:37.786Z,11.30
2023-03-29T17:42:05.568Z,11.30
2023-03-29T17:44:33.299Z,11.30
2023-03-29T17:47:00.992Z,11.30
2023-03-29T17:49:28.160Z,11.30
2023-03-29T17:51:55.120Z,11.30
2023-03-29T17:54:22.068Z,11.20
2023-03-29T17:56:48.922Z,11.20
2023-03-29T17:59:15.883Z,11.10
2023-03-29T18:01:42.937Z,11.20
2023-03-29T18:04:09.650Z,11.10
2023-03-29T18:06:36.406Z,11.10
2023-03-29T18:09:03.205Z,11.10
2023-03-29T18:11:30.156Z,11.10
2023-03-29T18:13:59.538Z,11.00
2023-03-29T18:16:26.691Z,11.00
2023-03-29T18:18:53.397Z,11.00
2023-03-29T18:21:20.256Z,11.00
2023-03-29T18:23:48.345Z,11.00
2023-03-29T18:26:16.746Z,11.00
2023-03-29T18:28:48.792Z,11.00
2023-03-29T18:31:15.976Z,10.90
2023-03-29T18:33:42.842Z,11.10
2023-03-29T18:36:12.992Z,11.00
2023-03-29T18:38:42.908Z,11.00
2023-03-29T18:41:12.048Z,11.00
2023-03-29T18:43:39.741Z,11.10
2023-03-29T18:46:08.066Z,11.00
2023-03-29T18:48:38.834Z,11.00
2023-03-29T18:51:07.835Z,11.00
2023-03-29T18:53:35.976Z,11.00
2023-03-29T18:56:04.295Z,10.90
2023-03-29T18:58:31.306Z,11.00
2023-03-29T19:01:05.452Z,11.00
2023-03-29T19:03:34.556Z,11.00
2023-03-29T19:06:02.744Z,10.90
2023-03-29T19:08:29.775Z,10.90
2023-03-29T19:11:05.458Z,10.90
2023-03-29T19:13:32.285Z,10.90
2023-03-29T19:15:59.262Z,10.90
2023-03-29T19:18:26.071Z,10.90
2023-03-29T19:20:54.173Z,10.90
2023-03-29T19:23:22.465Z,10.90
2023-03-29T19:25:57.375Z,10.90
2023-03-29T19:28:25.149Z,10.80
2023-03-29T19:30:52.083Z,10.80
2023-03-29T19:33:19.827Z,10.80
2023-03-29T19:35:46.618Z,10.80
2023-03-29T19:38:13.316Z,10.80
2023-03-29T19:40:40.192Z,10.80
2023-03-29T19:43:06.904Z,10.80
2023-03-29T19:45:33.629Z,10.80
2023-03-29T19:48:03.460Z,10.80
2023-03-29T19:50:31.609Z,10.80
2023-03-29T19:52:58.501Z,10.80
2023-03-29T19:55:26.432Z,10.80
2023-03-29T19:57:53.080Z,10.80
2023-03-29T20:00:24.289Z,10.80
2023-03-29T20:02:52.208Z,10.80
2023-03-29T20:05:18.984Z,10.80
2023-03-29T20:07:45.627Z,10.70
2023-03-29T20:10:12.361Z,10.70
2023-03-29T20:12:39.094Z,10.70
2023-03-29T20:15:06.530Z,10.60
2023-03-29T20:17:35.334Z,10.60
2023-03-29T20:20:08.153Z,10.70
2023-03-29T20:22:34.852Z,10.60
2023-03-29T20:25:01.570Z,10.60
2023-03-29T20:27:29.385Z,10.60
2023-03-29T20:29:56.173Z,10.60
2023-03-29T20:32:23.144Z,10.60
2023-03-29T20:34:49.809Z,10.50
2023-03-29T20:37:16.437Z,10.60
2023-03-29T20:39:43.142Z,10.60
2023-03-29T20:42:09.883Z,10.50
2023-03-29T20:44:36.674Z,10.60
2023-03-29T20:47:04.847Z,10.60
2023-03-29T20:49:39.211Z,10.50
2023-03-29T20:52:08.383Z,10.50
2023-03-29T20:54:37.015Z,10.50
2023-03-29T20:57:05.039Z,10.50
2023-03-29T20:59:31.862Z,10.50
2023-03-29T21:02:00.084Z,10.50
2023-03-29T21:04:28.225Z,10.50
2023-03-29T21:06:56.103Z,10.40
2023-03-29T21:09:25.487Z,10.50
2023-03-29T21:11:52.866Z,10.50
2023-03-29T21:14:21.038Z,10.40
2023-03-29T21:16:49.238Z,10.40
2023-03-29T21:19:16.684Z,10.30
2023-03-29T21:21:44.754Z,10.30
2023-03-29T21:24:13.747Z,10.30
2023-03-29T21:26:41.447Z,10.30
2023-03-29T21:29:08.122Z,10.20
2023-03-29T21:31:34.966Z,10.20
2023-03-29T21:34:01.782Z,10.20
2023-03-29T21:36:28.491Z,10.10
2023-03-29T21:38:55.295Z,10.20
2023-03-29T21:41:22.014Z,10.10
2023-03-29T21:43:50.021Z,10.20
2023-03-29T21:46:16.726Z,10.20
2023-03-29T21:48:43.343Z,10.20
2023-03-29T21:51:10.026Z,10.20
2023-03-29T21:53:36.995Z,10.20
2023-03-29T21:56:04.195Z,10.20
2023-03-29T21:58:31.064Z,10.20
2023-03-29T22:00:57.792Z,10.20
2023-03-29T22:03:24.671Z,10.10
2023-03-29T22:05:59.741Z,10.20
2023-03-29T22:08:26.506Z,10.20
2023-03-29T22:10:58.015Z,10.20
2023-03-29T22:13:26.608Z,10.20
2023-03-29T22:15:58.988Z,10.20
2023-03-29T22:18:27.933Z,10.20
2023-03-29T22:20:54.689Z,10.10
2023-03-29T22:23:21.347Z,10.10
2023-03-29T22:25:48.272Z,10.20
2023-03-29T22:28:14.950Z,10.20
2023-03-29T22:30:41.892Z,10.30
2023-03-29T22:33:08.614Z,10.20
2023-03-29T22:35:36.262Z,10.30
2023-03-29T22:38:02.962Z,10.30
2023-03-29T22:40:33.094Z,10.30
2023-03-29T22:43:00.258Z,10.40
2023-03-29T22:45:27.378Z,10.40
2023-03-29T22:47:54.247Z,10.50
2023-03-29T22:50:21.065Z,10.50
2023-03-29T22:52:47.711Z,10.60
2023-03-29T22:55:14.541Z,10.60
2023-03-29T22:57:41.364Z,10.60
2023-03-29T23:00:10.352Z,10.60
2023-03-29T23:02:37.319Z,10.60
2023-03-29T23:05:04.154Z,10.70
2023-03-29T23:07:30.893Z,10.60
2023-03-29T23:09:57.623Z,10.60
2023-03-29T23:12:24.358Z,10.60
2023-03-29T23:14:52.869Z,10.50
2023-03-29T23:17:19.457Z,10.50
2023-03-29T23:19:46.520Z,10.50
2023-03-29T23:22:13.573Z,10.40
2023-03-29T23:24:40.482Z,10.40
2023-03-29T23:27:07.654Z,10.40
2023-03-29T23:29:34.502Z,10.40
2023-03-29T23:32:01.260Z,10.40
2023-03-29T23:34:27.944Z,10.40
2023-03-29T23:36:54.725Z,10.40
2023-03-29T23:39:22.154Z,10.30
2023-03-29T23:41:49.134Z,10.40
2023-03-29T23:44:15.788Z,10.40
2023-03-29T23:46:42.447Z,10.40
2023-03-29T23:49:09.990Z,10.40
2023-03-29T23:51:36.783Z,10.40
2023-03-29T23:54:03.694Z,10.40
2023-03-29T23:56:30.398Z,10.40
2023-03-29T23:58:57.223Z,10.50
